createdAt,value
2022-12-11T00:01:14.260Z,20.33
2022-12-11T00:03:41.616Z,20.75
2022-12-11T00:06:10.448Z,20.73
2022-12-11T00:08:37.587Z,20.30
2022-12-11T00:11:05.323Z,19.13
2022-12-11T00:13:32.435Z,19.85
2022-12-11T00:15:59.585Z,20.63
2022-12-11T00:18:26.460Z,20.50
2022-12-11T00:20:53.376Z,21.10
2022-12-11T00:23:20.225Z,21.30
2022-12-11T00:25:48.213Z,20.45
2022-12-11T00:28:19.866Z,20.08
2022-12-11T00:30:46.934Z,19.02
2022-12-11T00:33:15.001Z,20.30
2022-12-11T00:35:44.941Z,19.05
2022-12-11T00:38:17.250Z,18.90
2022-12-11T00:40:44.642Z,19.17
2022-12-11T00:43:11.731Z,17.80
2022-12-11T00:45:41.247Z,17.60
2022-12-11T00:48:08.949Z,17.92
2022-12-11T00:50:36.761Z,18.05
2022-12-11T00:53:05.118Z,17.95
2022-12-11T00:55:32.423Z,18.10
2022-12-11T00:57:59.246Z,17.90
2022-12-11T01:00:26.133Z,18.27
2022-12-11T01:02:52.995Z,17.10
2022-12-11T01:05:19.839Z,18.60
2022-12-11T01:07:46.625Z,18.13
2022-12-11T01:10:26.178Z,17.40
2022-12-11T01:13:05.695Z,18.33
2022-12-11T01:15:41.328Z,18.05
2022-12-11T01:18:13.885Z,17.92
2022-12-11T01:20:42.679Z,17.38
2022-12-11T01:23:12.997Z,18.30
2022-12-11T01:25:40.407Z,17.98
2022-12-11T01:28:07.763Z,17.70
2022-12-11T01:30:35.081Z,19.38
2022-12-11T01:33:01.897Z,18.20
2022-12-11T01:35:29.302Z,20.00
2022-12-11T01:37:56.355Z,18.90
2022-12-11T01:40:23.592Z,18.55
2022-12-11T01:42:50.427Z,18.80
2022-12-11T01:45:28.991Z,18.80
2022-12-11T01:48:27.284Z,19.08
2022-12-11T01:50:57.672Z,17.65
2022-12-11T01:53:35.118Z,18.40
2022-12-11T01:56:03.087Z,17.88
2022-12-11T01:58:38.521Z,18.58
2022-12-11T02:01:05.587Z,18.88
2022-12-11T02:03:32.637Z,19.40
2022-12-11T02:06:03.365Z,20.80
2022-12-11T02:08:30.250Z,22.50
2022-12-11T02:11:18.506Z,22.17
2022-12-11T02:14:05.455Z,21.85
2022-12-11T02:16:50.673Z,21.83
2022-12-11T02:19:44.999Z,22.15
2022-12-11T02:22:17.943Z,21.63
2022-12-11T02:24:56.810Z,19.70
2022-12-11T02:27:32.724Z,19.15
2022-12-11T02:30:10.797Z,19.15
2022-12-11T02:32:39.970Z,18.30
2022-12-11T02:35:21.272Z,18.48
2022-12-11T02:37:52.729Z,18.10
2022-12-11T02:40:22.937Z,19.70
2022-12-11T02:42:52.195Z,18.80
2022-12-11T02:45:20.592Z,17.80
2022-12-11T02:47:48.974Z,18.00
2022-12-11T02:50:20.818Z,18.45
2022-12-11T02:52:50.823Z,20.23
2022-12-11T02:55:18.470Z,18.17
2022-12-11T02:57:56.506Z,18.25
2022-12-11T03:00:23.449Z,18.50
2022-12-11T03:02:50.355Z,18.85
2022-12-11T03:05:17.214Z,19.50
2022-12-11T03:07:44.829Z,19.88
2022-12-11T03:10:15.426Z,19.35
2022-12-11T03:12:47.039Z,19.90
2022-12-11T03:15:20.386Z,19.15
2022-12-11T03:18:05.120Z,19.90
2022-12-11T03:20:47.477Z,19.17
2022-12-11T03:23:38.315Z,19.15
2022-12-11T03:26:17.147Z,21.10
2022-12-11T03:29:04.554Z,19.25
2022-12-11T03:31:45.699Z,19.40
2022-12-11T03:34:21.923Z,20.60
2022-12-11T03:36:52.143Z,20.58
2022-12-11T03:39:25.787Z,20.83
2022-12-11T03:41:54.723Z,21.90
2022-12-11T03:44:24.131Z,20.27
2022-12-11T03:46:53.154Z,20.60
2022-12-11T03:49:24.379Z,20.70
2022-12-11T03:51:54.472Z,20.10
2022-12-11T03:54:23.002Z,19.85
2022-12-11T03:56:53.549Z,20.10
2022-12-11T03:59:20.561Z,20.00
2022-12-11T04:01:47.466Z,19.02
2022-12-11T04:04:14.545Z,19.98
2022-12-11T04:06:41.474Z,20.00
2022-12-11T04:09:08.475Z,21.38
2022-12-11T04:11:35.339Z,20.55
2022-12-11T04:14:26.113Z,20.40
2022-12-11T04:16:53.519Z,19.83
2022-12-11T04:19:40.575Z,21.15
2022-12-11T04:22:26.381Z,20.53
2022-12-11T04:24:53.101Z,20.77
2022-12-11T04:27:39.065Z,20.70
2022-12-11T04:30:08.962Z,19.95
2022-12-11T04:32:35.753Z,21.42
2022-12-11T04:35:02.807Z,20.92
2022-12-11T04:37:29.620Z,20.10
2022-12-11T04:39:56.417Z,23.17
2022-12-11T04:42:23.298Z,21.90
2022-12-11T04:44:50.032Z,21.25
2022-12-11T04:47:17.064Z,20.95
2022-12-11T04:49:43.858Z,22.40
2022-12-11T04:52:10.828Z,21.85
2022-12-11T04:54:37.601Z,22.63
2022-12-11T04:57:04.471Z,20.92
2022-12-11T04:59:32.654Z,21.17
2022-12-11T05:01:59.739Z,21.50
2022-12-11T05:04:30.393Z,21.00
2022-12-11T05:06:57.159Z,21.27
2022-12-11T05:09:23.939Z,21.73
2022-12-11T05:11:50.670Z,22.15
2022-12-11T05:14:17.882Z,21.77
2022-12-11T05:16:45.169Z,22.60
2022-12-11T05:19:11.966Z,21.02
2022-12-11T05:21:38.822Z,20.85
2022-12-11T05:24:06.178Z,21.27
2022-12-11T05:26:33.028Z,21.98
2022-12-11T05:28:59.810Z,21.40
2022-12-11T05:31:27.799Z,22.70
2022-12-11T05:33:54.638Z,21.98
2022-12-11T05:36:30.099Z,21.85
2022-12-11T05:38:58.168Z,20.65
2022-12-11T05:41:27.073Z,21.50
2022-12-11T05:43:54.249Z,21.47
2022-12-11T05:46:23.567Z,20.23
2022-12-11T05:48:53.967Z,20.95
2022-12-11T05:51:21.342Z,19.10
2022-12-11T05:53:50.419Z,19.65
2022-12-11T05:56:20.973Z,19.13
2022-12-11T05:58:49.150Z,20.00
2022-12-11T06:01:22.274Z,19.45
2022-12-11T06:03:49.209Z,19.60
2022-12-11T06:06:16.709Z,19.27
2022-12-11T06:08:43.643Z,19.05
2022-12-11T06:11:13.355Z,19.02
2022-12-11T06:13:40.279Z,19.42
2022-12-11T06:16:08.658Z,19.63
2022-12-11T06:18:39.891Z,19.90
2022-12-11T06:21:14.620Z,18.92
2022-12-11T06:23:41.987Z,19.77
2022-12-11T06:26:10.478Z,18.88
2022-12-11T06:28:37.514Z,19.45
2022-12-11T06:31:04.720Z,20.10
2022-12-11T06:33:31.869Z,19.63
2022-12-11T06:36:13.421Z,19.20
2022-12-11T06:38:40.386Z,19.52
2022-12-11T06:41:08.284Z,20.85
2022-12-11T06:43:37.618Z,19.45
2022-12-11T06:46:09.986Z,18.83
2022-12-11T06:48:37.015Z,18.90
2022-12-11T06:51:18.281Z,18.60
2022-12-11T06:53:45.905Z,19.80
2022-12-11T06:56:14.617Z,19.38
2022-12-11T06:58:42.871Z,19.67
2022-12-11T07:01:24.902Z,19.10
2022-12-11T07:03:57.142Z,18.83
2022-12-11T07:06:25.295Z,18.48
2022-12-11T07:08:52.506Z,18.60
2022-12-11T07:11:20.236Z,20.10
2022-12-11T07:13:47.336Z,19.48
2022-12-11T07:16:15.777Z,19.50
2022-12-11T07:18:50.397Z,19.73
2022-12-11T07:21:17.925Z,21.38
2022-12-11T07:23:44.741Z,20.88
2022-12-11T07:26:13.841Z,20.38
2022-12-11T07:28:41.457Z,21.40
2022-12-11T07:31:28.874Z,19.80
2022-12-11T07:33:57.637Z,19.60
2022-12-11T07:36:25.655Z,19.40
2022-12-11T07:38:52.918Z,18.98
2022-12-11T07:41:20.185Z,19.30
2022-12-11T07:43:47.984Z,20.40
2022-12-11T07:46:18.228Z,20.60
2022-12-11T07:48:47.130Z,20.60
2022-12-11T07:51:16.803Z,20.70
2022-12-11T07:53:45.186Z,19.48
2022-12-11T07:56:12.161Z,19.00
2022-12-11T07:58:39.005Z,20.00
2022-12-11T08:01:06.830Z,20.55
2022-12-11T08:03:33.665Z,19.95
2022-12-11T08:06:00.824Z,20.88
2022-12-11T08:08:27.738Z,24.60
2022-12-11T08:10:54.626Z,23.98
2022-12-11T08:13:21.351Z,24.15
2022-12-11T08:15:48.992Z,25.10
2022-12-11T08:18:15.730Z,23.95
2022-12-11T08:20:42.553Z,23.17
2022-12-11T08:23:09.445Z,22.45
2022-12-11T08:25:36.572Z,21.48
2022-12-11T08:28:03.818Z,22.60
2022-12-11T08:30:31.530Z,23.23
2022-12-11T08:32:59.858Z,22.88
2022-12-11T08:35:27.259Z,23.10
2022-12-11T08:37:54.013Z,24.13
2022-12-11T08:40:20.910Z,25.40
2022-12-11T08:42:47.750Z,23.40
2022-12-11T08:45:14.754Z,23.33
2022-12-11T08:47:41.900Z,23.55
2022-12-11T08:50:09.362Z,24.17
2022-12-11T08:52:36.154Z,24.43
2022-12-11T08:55:03.434Z,24.15
2022-12-11T08:57:30.270Z,23.52
2022-12-11T08:59:57.051Z,24.05
2022-12-11T09:02:23.972Z,23.15
2022-12-11T09:04:50.935Z,22.70
2022-12-11T09:07:17.848Z,23.05
2022-12-11T09:09:44.666Z,23.92
2022-12-11T09:12:11.473Z,23.60
2022-12-11T09:14:38.363Z,23.15
2022-12-11T09:17:05.508Z,23.83
2022-12-11T09:19:32.725Z,23.15
2022-12-11T09:21:59.638Z,24.10
2022-12-11T09:24:26.546Z,26.03
2022-12-11T09:26:54.583Z,25.30
2022-12-11T09:29:21.615Z,25.98
2022-12-11T09:31:49.551Z,23.67
2022-12-11T09:34:16.409Z,25.40
2022-12-11T09:36:44.315Z,24.83
2022-12-11T09:39:12.391Z,23.23
2022-12-11T09:42:03.603Z,24.15
2022-12-11T09:44:51.462Z,23.70
2022-12-11T09:47:44.022Z,21.63
2022-12-11T09:50:15.313Z,22.20
2022-12-11T09:53:05.229Z,22.20
2022-12-11T09:55:42.658Z,23.75
2022-12-11T09:58:30.591Z,22.42
2022-12-11T10:01:20.523Z,23.48
2022-12-11T10:04:15.652Z,23.03
2022-12-11T10:06:53.350Z,22.15
2022-12-11T10:09:30.758Z,24.02
2022-12-11T10:12:21.043Z,22.00
2022-12-11T10:15:12.622Z,22.83
2022-12-11T10:17:41.942Z,22.70
2022-12-11T10:20:28.039Z,22.48
2022-12-11T10:22:56.829Z,23.35
2022-12-11T10:25:41.690Z,23.58
2022-12-11T10:28:16.751Z,24.20
2022-12-11T10:30:53.247Z,23.45
2022-12-11T10:33:41.512Z,24.30
2022-12-11T10:36:09.938Z,23.08
2022-12-11T10:38:42.720Z,24.20
2022-12-11T10:41:17.458Z,24.67
2022-12-11T10:43:50.072Z,23.95
2022-12-11T10:46:26.323Z,23.35
2022-12-11T10:48:56.025Z,23.10
2022-12-11T10:51:26.502Z,24.40
2022-12-11T10:53:55.923Z,24.20
2022-12-11T10:56:30.588Z,23.75
2022-12-11T10:58:59.717Z,22.48
2022-12-11T11:01:30.932Z,22.75
2022-12-11T11:04:15.407Z,23.67
2022-12-11T11:06:42.312Z,23.60
2022-12-11T11:09:29.962Z,24.67
2022-12-11T11:11:56.992Z,23.30
2022-12-11T11:14:23.898Z,25.92
2022-12-11T11:16:52.706Z,25.95
2022-12-11T11:19:34.985Z,28.75
2022-12-11T11:22:21.591Z,25.27
2022-12-11T11:24:58.399Z,26.00
2022-12-11T11:27:42.279Z,28.60
2022-12-11T11:30:41.858Z,29.10
2022-12-11T11:33:19.498Z,31.23
2022-12-11T11:36:07.582Z,26.37
2022-12-11T11:38:41.019Z,27.48
2022-12-11T11:41:17.645Z,27.13
2022-12-11T11:43:48.865Z,27.17
2022-12-11T11:46:44.451Z,26.80
2022-12-11T11:49:34.305Z,27.55
2022-12-11T11:52:17.745Z,28.20
2022-12-11T11:55:22.174Z,28.00
2022-12-11T11:58:13.443Z,28.75
2022-12-11T12:00:40.361Z,26.70
2022-12-11T12:03:11.654Z,27.95
2022-12-11T12:06:14.860Z,27.73
2022-12-11T12:09:04.969Z,27.70
2022-12-11T12:11:49.518Z,25.33
2022-12-11T12:17:31.590Z,26.70
2022-12-11T12:20:23.924Z,26.88
2022-12-11T12:23:02.718Z,26.58
2022-12-11T12:25:40.754Z,28.23
2022-12-11T12:28:34.335Z,27.38
2022-12-11T12:31:26.059Z,27.98
2022-12-11T12:34:11.272Z,27.13
2022-12-11T12:37:02.445Z,28.17
2022-12-11T12:39:35.242Z,26.67
2022-12-11T12:42:37.678Z,26.95
2022-12-11T12:45:13.207Z,29.10
2022-12-11T12:47:43.208Z,27.95
2022-12-11T12:50:13.662Z,26.42
2022-12-11T12:52:41.592Z,25.23
2022-12-11T12:55:27.164Z,27.13
2022-12-11T12:58:00.670Z,27.33
2022-12-11T13:00:39.438Z,27.08
2022-12-11T13:03:21.856Z,26.53
2022-12-11T13:06:01.590Z,26.08
2022-12-11T13:08:42.103Z,26.25
2022-12-11T13:11:12.042Z,27.40
2022-12-11T13:13:54.521Z,27.27
2022-12-11T13:16:34.528Z,25.80
2022-12-11T13:19:01.465Z,25.85
2022-12-11T13:21:34.675Z,24.90
2022-12-11T13:24:34.273Z,24.50
2022-12-11T13:27:11.911Z,28.00
2022-12-11T13:29:42.617Z,24.73
2022-12-11T13:32:09.460Z,27.10
2022-12-11T13:34:42.203Z,24.50
2022-12-11T13:37:33.126Z,25.73
2022-12-11T13:40:03.453Z,27.08
2022-12-11T13:42:48.077Z,26.23
2022-12-11T13:45:25.945Z,25.77
2022-12-11T13:47:52.790Z,26.80
2022-12-11T13:50:25.547Z,27.05
2022-12-11T13:52:57.605Z,26.25
2022-12-11T13:55:33.142Z,26.40
2022-12-11T13:58:00.858Z,28.02
2022-12-11T14:00:32.905Z,27.50
2022-12-11T14:03:04.364Z,27.13
2022-12-11T14:05:31.542Z,29.48
2022-12-11T14:08:02.656Z,27.92
2022-12-11T14:10:33.099Z,28.30
2022-12-11T14:13:05.961Z,29.88
2022-12-11T14:15:35.239Z,29.08
2022-12-11T14:18:03.295Z,28.63
2022-12-11T14:20:33.238Z,28.33
2022-12-11T14:23:17.132Z,29.98
2022-12-11T14:25:53.299Z,28.50
2022-12-11T14:28:21.038Z,29.75
2022-12-11T14:30:51.601Z,27.38
2022-12-11T14:33:22.994Z,28.17
2022-12-11T14:35:52.164Z,26.33
2022-12-11T14:38:34.151Z,27.70
2022-12-11T14:41:06.262Z,27.85
2022-12-11T14:43:40.384Z,28.10
2022-12-11T14:46:15.560Z,27.75
2022-12-11T14:48:53.809Z,28.10
2022-12-11T14:51:24.056Z,27.90
2022-12-11T14:53:53.521Z,27.20
2022-12-11T14:56:27.426Z,28.48
2022-12-11T14:58:58.413Z,30.73
2022-12-11T15:01:30.387Z,29.80
2022-12-11T15:04:04.781Z,29.00
2022-12-11T15:06:33.504Z,28.45
2022-12-11T15:09:27.228Z,28.40
2022-12-11T15:12:00.410Z,28.55
2022-12-11T15:14:27.784Z,28.80
2022-12-11T15:16:57.333Z,28.83
2022-12-11T15:19:35.621Z,29.33
2022-12-11T15:22:07.895Z,28.73
2022-12-11T15:24:34.693Z,29.05
2022-12-11T15:27:02.180Z,28.70
2022-12-11T15:29:36.387Z,29.95
2022-12-11T15:32:14.329Z,30.02
2022-12-11T15:34:49.248Z,30.60
2022-12-11T15:37:21.584Z,29.63
2022-12-11T15:39:48.839Z,30.20
2022-12-11T15:42:30.018Z,28.88
2022-12-11T15:44:57.336Z,28.23
2022-12-11T15:47:28.369Z,29.92
2022-12-11T15:50:21.625Z,28.42
2022-12-11T15:52:53.486Z,28.88
2022-12-11T15:55:26.341Z,27.58
2022-12-11T15:57:59.316Z,29.70
2022-12-11T16:00:28.127Z,27.60
2022-12-11T16:02:58.670Z,28.83
2022-12-11T16:05:28.607Z,29.25
2022-12-11T16:07:59.431Z,31.40
2022-12-11T16:10:27.130Z,30.13
2022-12-11T16:12:59.237Z,31.10
2022-12-11T16:15:29.566Z,30.90
2022-12-11T16:18:05.903Z,30.15
2022-12-11T16:20:35.267Z,28.88
2022-12-11T16:23:02.598Z,31.13
2022-12-11T16:25:30.024Z,30.92
2022-12-11T16:27:58.414Z,29.17
2022-12-11T16:30:26.811Z,27.65
2022-12-11T16:32:54.263Z,25.23
2022-12-11T16:35:22.495Z,25.77
2022-12-11T16:37:50.887Z,28.05
2022-12-11T16:40:18.442Z,27.77
2022-12-11T16:42:45.740Z,36.03
2022-12-11T16:45:14.993Z,33.35
2022-12-11T16:47:42.399Z,30.90
2022-12-11T16:50:10.074Z,30.35
2022-12-11T16:52:36.940Z,30.05
2022-12-11T16:55:04.635Z,28.30
2022-12-11T16:57:31.582Z,27.67
2022-12-11T16:59:58.597Z,28.45
2022-12-11T17:02:25.593Z,27.60
2022-12-11T17:04:54.206Z,26.03
2022-12-11T17:07:21.149Z,26.17
2022-12-11T17:09:48.058Z,29.00
2022-12-11T17:12:15.018Z,29.85
2022-12-11T17:14:43.762Z,28.00
2022-12-11T17:17:10.643Z,41.17
2022-12-11T17:19:37.593Z,34.05
2022-12-11T17:22:04.662Z,34.72
2022-12-11T17:24:31.538Z,34.22
2022-12-11T17:26:59.688Z,36.80
2022-12-11T17:29:26.585Z,31.67
2022-12-11T17:31:53.544Z,32.15
2022-12-11T17:34:20.443Z,32.35
2022-12-11T17:36:47.330Z,32.05
2022-12-11T17:39:14.255Z,31.83
2022-12-11T17:41:41.061Z,31.27
2022-12-11T17:44:07.846Z,30.88
2022-12-11T17:46:34.816Z,29.85
2022-12-11T17:49:04.131Z,30.02
2022-12-11T17:51:31.027Z,29.65
2022-12-11T17:53:58.374Z,27.85
2022-12-11T17:56:26.005Z,27.65
2022-12-11T17:58:53.135Z,26.30
2022-12-11T18:01:20.400Z,25.67
2022-12-11T18:03:47.452Z,25.35
2022-12-11T18:06:15.906Z,26.58
2022-12-11T18:08:44.311Z,29.60
2022-12-11T18:11:17.005Z,27.30
2022-12-11T18:13:44.910Z,27.60
2022-12-11T18:16:19.241Z,28.27
2022-12-11T18:18:47.406Z,29.17
2022-12-11T18:21:20.579Z,28.53
2022-12-11T18:23:48.023Z,30.90
2022-12-11T18:26:14.990Z,30.23
2022-12-11T18:28:43.530Z,28.70
2022-12-11T18:31:10.917Z,29.33
2022-12-11T18:33:38.957Z,30.02
2022-12-11T18:36:06.379Z,28.67
2022-12-11T18:38:33.947Z,28.83
2022-12-11T18:41:05.501Z,29.60
2022-12-11T18:43:32.514Z,31.40
2022-12-11T18:45:59.522Z,30.67
2022-12-11T18:48:26.358Z,29.77
2022-12-11T18:50:53.319Z,31.88
2022-12-11T18:53:20.254Z,31.30
2022-12-11T18:55:48.715Z,32.55
2022-12-11T18:58:17.954Z,33.20
2022-12-11T19:00:45.646Z,32.33
2022-12-11T19:03:14.119Z,31.45
2022-12-11T19:05:43.652Z,34.20
2022-12-11T19:08:13.943Z,35.95
2022-12-11T19:10:43.377Z,32.90
2022-12-11T19:13:10.567Z,34.13
2022-12-11T19:15:39.528Z,35.55
2022-12-11T19:18:07.039Z,33.05
2022-12-11T19:20:49.277Z,33.35
2022-12-11T19:23:17.066Z,30.73
2022-12-11T19:25:48.477Z,32.83
2022-12-11T19:28:15.694Z,30.40
2022-12-11T19:30:48.855Z,30.13
2022-12-11T19:33:16.847Z,30.65
2022-12-11T19:35:44.410Z,31.95
2022-12-11T19:38:13.087Z,32.58
2022-12-11T19:40:45.659Z,30.40
2022-12-11T19:43:12.606Z,30.17
2022-12-11T19:45:39.407Z,33.90
2022-12-11T19:48:06.421Z,32.47
2022-12-11T19:50:36.286Z,33.53
2022-12-11T19:53:04.196Z,30.92
2022-12-11T19:55:31.073Z,32.07
2022-12-11T19:57:58.122Z,31.95
2022-12-11T20:00:24.978Z,33.85
2022-12-11T20:02:51.942Z,31.73
2022-12-11T20:05:18.986Z,33.92
2022-12-11T20:07:45.926Z,34.00
2022-12-11T20:10:12.963Z,37.07
2022-12-11T20:12:40.605Z,33.65
2022-12-11T20:15:08.041Z,35.05
2022-12-11T20:17:36.692Z,36.03
2022-12-11T20:20:03.962Z,34.85
2022-12-11T20:22:30.853Z,35.17
2022-12-11T20:24:57.678Z,36.17
2022-12-11T20:27:26.082Z,32.83
2022-12-11T20:29:52.911Z,32.78
2022-12-11T20:32:19.758Z,32.90
2022-12-11T20:34:46.633Z,30.35
2022-12-11T20:37:13.523Z,31.88
2022-12-11T20:39:40.456Z,36.17
2022-12-11T20:42:09.388Z,40.20
2022-12-11T20:44:36.227Z,36.70
2022-12-11T20:47:03.278Z,38.33
2022-12-11T20:49:30.109Z,40.60
2022-12-11T20:51:57.026Z,35.47
2022-12-11T20:54:24.005Z,35.92
2022-12-11T20:56:51.293Z,36.25
2022-12-11T20:59:18.771Z,35.33
2022-12-11T21:01:45.774Z,37.60
2022-12-11T21:04:12.810Z,33.88
2022-12-11T21:06:41.014Z,35.35
2022-12-11T21:09:12.146Z,32.80
2022-12-11T21:11:39.170Z,31.95
2022-12-11T21:14:06.622Z,32.50
2022-12-11T21:16:36.405Z,32.27
2022-12-11T21:19:04.442Z,29.90
2022-12-11T21:21:33.204Z,31.65
2022-12-11T21:24:00.177Z,29.90
2022-12-11T21:26:26.922Z,31.13
2022-12-11T21:28:53.826Z,35.20
2022-12-11T21:31:20.843Z,32.72
2022-12-11T21:33:48.295Z,32.08
2022-12-11T21:36:15.687Z,31.42
2022-12-11T21:38:44.219Z,30.33
2022-12-11T21:41:20.115Z,28.85
2022-12-11T21:45:14.629Z,28.85
2022-12-11T21:46:35.558Z,27.40
2022-12-11T21:49:02.457Z,27.17
2022-12-11T21:51:37.948Z,29.23
2022-12-11T21:54:09.192Z,29.67
2022-12-11T21:56:36.355Z,45.15
2022-12-11T21:59:03.411Z,36.23
2022-12-11T22:01:37.482Z,50.22
2022-12-11T22:04:06.678Z,35.20
2022-12-11T22:06:34.160Z,34.50
2022-12-11T22:09:02.412Z,32.88
2022-12-11T22:11:32.937Z,32.45
2022-12-11T22:13:59.932Z,32.65
2022-12-11T22:16:27.195Z,32.67
2022-12-11T22:18:54.295Z,30.27
2022-12-11T22:21:21.567Z,31.42
2022-12-11T22:23:50.665Z,32.20
2022-12-11T22:26:22.055Z,32.85
2022-12-11T22:28:49.095Z,31.10
2022-12-11T22:31:19.923Z,31.98
2022-12-11T22:33:47.498Z,35.97
2022-12-11T22:36:14.945Z,36.72
2022-12-11T22:38:41.870Z,36.25
2022-12-11T22:41:38.295Z,36.00
2022-12-11T22:44:05.247Z,33.33
2022-12-11T22:46:32.118Z,35.42
2022-12-11T22:48:59.415Z,39.33
2022-12-11T22:51:26.352Z,35.70
2022-12-11T22:53:53.096Z,34.47
2022-12-11T22:56:20.142Z,33.88
2022-12-11T22:58:47.138Z,35.72
2022-12-11T23:01:18.871Z,35.90
2022-12-11T23:03:46.809Z,52.17
2022-12-11T23:06:16.474Z,41.58
2022-12-11T23:08:43.860Z,39.03
2022-12-11T23:11:18.659Z,39.47
2022-12-11T23:13:45.586Z,38.47
2022-12-11T23:16:12.639Z,34.50
2022-12-11T23:18:39.682Z,33.57
2022-12-11T23:21:07.525Z,36.17
2022-12-11T23:23:34.951Z,35.67
2022-12-11T23:26:02.451Z,43.03
2022-12-11T23:28:29.241Z,42.40
2022-12-11T23:30:56.075Z,47.92
2022-12-11T23:33:23.202Z,36.35
2022-12-11T23:35:49.951Z,47.33
2022-12-11T23:38:17.524Z,48.95
2022-12-11T23:40:44.514Z,45.22
2022-12-11T23:43:11.441Z,37.22
2022-12-11T23:45:38.197Z,33.35
2022-12-11T23:48:05.055Z,35.73
2022-12-11T23:50:32.949Z,45.97
2022-12-11T23:53:00.307Z,36.88
2022-12-11T23:55:27.561Z,34.33
2022-12-11T23:57:54.529Z,34.03
